Tuesday, February 20, 2018, 4:41 AM EST

KTHV, York Airport

Location: Spring Grove, PA, United States Lat: 39.917
Local Time: 4:41 AM EST ( 9:41 GMT) Lon: -76.883
Time Zone: US/Eastern Elev: 478 ft

Show me the last for .
Show Decoded

2018-02-20 03:53 METAR KTHV 200853Z AUTO 20004KT 8SM OVC005 09/09 A3028 RMK AO2 SLP257 T00890089
                 58007 =
2018-02-20 02:53 METAR KTHV 200753Z AUTO 00000KT 6SM BR OVC005 09/09 A3028 RMK AO2 SLP260
                 T00890089 =
2018-02-20 02:16 METAR KTHV 200716Z AUTO 00000KT 7SM OVC005 09/08 A3029 RMK AO2 T00890083 =
2018-02-20 01:53 METAR KTHV 200653Z AUTO 19003KT 7SM OVC007 08/08 A3029 RMK AO2 SLP263 T00830083
                 =
2018-02-20 00:53 METAR KTHV 200553Z AUTO 00000KT 7SM OVC007 08/08 A3030 RMK AO2 SLP264 T00830078
                 10083 20072 56005 =
2018-02-19 23:53 METAR KTHV 200453Z AUTO 21004KT 6SM BR OVC006 08/08 A3030 RMK AO2 SLP266
                 T00780078 400830000 =
2018-02-19 22:53 METAR KTHV 200353Z AUTO 20004KT 6SM BR OVC005 08/07 A3030 RMK AO2 SLP266
                 T00780072 =
2018-02-19 21:53 METAR KTHV 200253Z AUTO VRB03KT 5SM BR OVC005 07/07 A3031 RMK AO2 SLP269
                 T00720072 56003 =
2018-02-19 20:53 METAR KTHV 200153Z AUTO 00000KT 6SM BR OVC005 07/07 A3032 RMK AO2 SLP272
                 T00720072 =
2018-02-19 19:53 METAR KTHV 200053Z AUTO 00000KT 6SM BR OVC005 07/07 A3032 RMK AO2 SLP271
                 T00720072 =
2018-02-19 19:17 METAR KTHV 200017Z AUTO VRB04KT 6SM BR OVC005 07/07 A3032 RMK AO2 T00720072 =
2018-02-19 18:53 METAR KTHV 192353Z AUTO 22004KT 8SM OVC006 07/07 A3032 RMK AO2 SLP274 60001
                 T00720072 10083 20067 53005 =
2018-02-19 17:53 METAR KTHV 192253Z AUTO VRB06KT 10SM OVC007 08/07 A3031 RMK AO2 SLP268 T00780072
                 =
2018-02-19 17:45 METAR KTHV 192245Z AUTO 17004KT 10SM OVC007 08/07 A3030 RMK AO2 T00780072 =
2018-02-19 16:53 METAR KTHV 192153Z AUTO 19007KT 10SM OVC009 08/07 A3030 RMK AO2 SLP267 T00780072
                 =
2018-02-19 16:08 METAR KTHV 192108Z AUTO VRB05KT 10SM OVC008 08/07 A3030 RMK AO2 T00780072 =
2018-02-19 15:53 METAR KTHV 192053Z AUTO VRB03KT 8SM OVC007 08/07 A3031 RMK AO2 SLP268 60001
                 T00780072 58019 =
2018-02-19 15:36 METAR KTHV 192036Z AUTO 15004KT 2 1/2SM BR OVC007 07/07 A3032 RMK AO2 T00720072
                 =
2018-02-19 15:09 METAR KTHV 192009Z AUTO VRB03KT 3SM BR OVC007 07/07 A3033 RMK AO2 T00670067 =
2018-02-19 14:53 METAR KTHV 191953Z AUTO VRB04KT 9SM OVC008 07/06 A3033 RMK AO2 RAE35 SLP277
                 P0001 T00670061 =
2018-02-19 14:21 METAR KTHV 191921Z AUTO VRB06KT 5SM -RA BR OVC009 07/06 A3033 RMK AO2 P0000
                 T00670056 =
2018-02-19 13:53 METAR KTHV 191853Z AUTO VRB04KT 10SM -RA OVC010 07/05 A3034 RMK AO2 RAB50 SLP280
                 P0000 T00670050 =
2018-02-19 12:53 METAR KTHV 191753Z AUTO VRB04KT 10SM OVC013 06/04 A3036 RMK AO2 SLP288 60000
                 T00610039 10067 20028 58025 =
2018-02-19 12:40 METAR KTHV 191740Z AUTO 10SM OVC014 07/04 A3036 RMK AO2 T00670039 =
2018-02-19 12:14 METAR KTHV 191714Z AUTO 17004KT 10SM BKN019 BKN030 OVC043 06/03 A3038 RMK AO2
                 T00610033 =
2018-02-19 11:53 METAR KTHV 191653Z AUTO 17005KT 10SM FEW023 SCT031 OVC042 06/03 A3040 RMK AO2
                 SLP299 T00610033 =
2018-02-19 11:27 METAR KTHV 191627Z AUTO 20005KT 10SM SCT020 SCT026 OVC043 06/03 A3042 RMK AO2
                 T00560028 =
2018-02-19 10:53 METAR KTHV 191553Z AUTO 19005KT 10SM FEW021 BKN028 OVC040 06/02 A3043 RMK AO2
                 SLP311 T00560022 =
2018-02-19 09:53 METAR KTHV 191453Z AUTO 20005KT 10SM BKN033 OVC040 05/01 A3044 RMK AO2 SLP314
                 60000 T00500011 58000 =
2018-02-19 08:53 METAR KTHV 191353Z AUTO 18004KT 10SM OVC041 04/01 A3043 RMK AO2 SLP313 T00390011
                 =
2018-02-19 07:53 METAR KTHV 191253Z AUTO 16003KT 10SM SCT036 SCT048 OVC090 03/01 A3044 RMK AO2
                 RAB23E32 SLP316 P0000 T00330011 =
2018-02-19 06:53 METAR KTHV 191153Z AUTO 19006KT 10SM OVC036 03/01 A3044 RMK AO2 SLP314 T00330006
                 10033 20011 58005 =
2018-02-19 05:53 METAR KTHV 191053Z AUTO 15005KT 10SM OVC038 03/01 A3045 RMK AO2 SLP316 T00280006
                 =
2018-02-19 04:53 METAR KTHV 190953Z AUTO 15004KT 10SM OVC038 03/00 A3045 RMK AO2 SLP318 T00280000
                 =

Support USWX by starting your Amazon purchase here.